Time;durP1;ratioP1;P1;durP2;ratioP2;P2;SDS_P1;SDS_P2;PMS_P1;PMS_P2;Temp;Humidity;BMP_temperature;BMP_pressure;BME280_temperature;BME280_humidity;BME280_pressure;Samples;Min_cycle;Max_cycle;Signal;HPM_P1;HPM_P2
2022/09/05 00:00:42;;;;;;;7.00;5.60;;;;;;;24.41;37.94;101752.81;16135404;19;129401;-63
2022/09/05 00:06:12;;;;;;;9.13;6.38;;;;;;;24.40;37.58;101751.13;16134748;19;129444;-63
2022/09/05 00:11:45;;;;;;;9.00;6.35;;;;;;;24.41;37.77;101746.34;16135056;19;129578;-63
2022/09/05 00:17:16;;;;;;;7.50;5.60;;;;;;;24.38;37.82;101747.75;16140601;19;130130;-63
2022/09/05 00:23:07;;;;;;;7.47;5.80;;;;;;;24.39;37.60;101742.97;16148849;19;129544;-62
2022/09/05 00:29:01;;;;;;;6.85;5.38;;;;;;;24.38;37.82;101758.06;16148867;19;129981;-62
2022/09/05 00:34:51;;;;;;;6.57;5.65;;;;;;;24.37;37.71;101751.66;16146627;19;129875;-63
2022/09/05 00:40:18;;;;;;;7.60;5.88;;;;;;;24.36;37.67;101746.31;16148561;19;129563;-63
2022/09/05 00:45:49;;;;;;;7.13;5.40;;;;;;;24.36;37.89;101749.13;16148619;19;129959;-63
2022/09/05 00:51:38;;;;;;;8.70;5.75;;;;;;;24.35;37.93;101739.03;16146513;19;129300;-63
2022/09/05 00:57:32;;;;;;;7.97;5.88;;;;;;;24.33;37.74;101728.09;16142112;19;130683;-63
2022/09/05 01:03:16;;;;;;;8.02;5.03;;;;;;;24.32;37.71;101737.59;16143736;19;130278;-63
2022/09/05 01:09:09;;;;;;;5.95;4.80;;;;;;;24.32;37.90;101733.97;16145718;19;129788;-63
2022/09/05 01:14:55;;;;;;;5.50;4.80;;;;;;;24.31;37.84;101735.09;16142952;19;129326;-62
2022/09/05 01:20:29;;;;;;;8.88;4.82;;;;;;;24.30;37.71;101730.59;16144086;19;129675;-63
2022/09/05 01:25:56;;;;;;;7.28;4.95;;;;;;;24.28;37.87;101733.66;16141613;19;130538;-63
2022/09/05 01:31:29;;;;;;;6.27;4.83;;;;;;;24.29;37.77;101726.13;16143688;19;129532;-63
2022/09/05 01:37:14;;;;;;;6.68;4.88;;;;;;;24.27;38.00;101723.59;16139594;19;131171;-63
2022/09/05 01:43:05;;;;;;;5.57;4.43;;;;;;;24.27;37.67;101734.78;16140937;19;129619;-63
2022/09/05 01:48:38;;;;;;;10.07;4.75;;;;;;;24.25;37.53;101721.03;16138991;19;129425;-63
2022/09/05 01:54:49;;;;;;;4.25;3.63;;;;;;;24.23;37.59;101723.25;16138467;19;129765;-63
2022/09/05 02:00:11;;;;;;;6.28;4.18;;;;;;;24.23;38.03;101726.06;16140715;19;129691;-63
2022/09/05 02:05:50;;;;;;;5.38;4.43;;;;;;;24.21;37.77;101725.47;16142328;19;129119;-63
2022/09/05 02:11:13;;;;;;;5.65;4.50;;;;;;;24.20;37.45;101720.13;16142103;19;129391;-63
2022/09/05 02:17:26;;;;;;;4.60;4.03;;;;;;;24.21;37.58;101722.69;16136598;19;130156;-62
2022/09/05 02:23:24;;;;;;;4.75;4.25;;;;;;;24.19;37.85;101733.28;16142417;19;129883;-63
2022/09/05 02:29:13;;;;;;;4.65;4.13;;;;;;;24.20;37.84;101736.91;16141266;19;129231;-63
2022/09/05 02:35:13;;;;;;;4.88;4.15;;;;;;;24.17;37.72;101738.28;16136172;19;130306;-63
2022/09/05 02:40:35;;;;;;;5.97;4.07;;;;;;;24.17;37.79;101741.06;16135256;19;130211;-63
2022/09/05 02:46:37;;;;;;;5.72;3.75;;;;;;;24.17;37.58;101738.28;16137388;19;129603;-63
2022/09/05 02:52:12;;;;;;;5.78;4.43;;;;;;;24.17;37.71;101729.91;16140542;19;130376;-63
2022/09/05 02:58:25;;;;;;;5.20;3.88;;;;;;;24.15;37.71;101729.31;16132559;19;129379;-63
2022/09/05 03:04:15;;;;;;;5.60;3.88;;;;;;;24.16;37.89;101730.16;16128638;19;129714;-63
2022/09/05 03:10:06;;;;;;;6.13;3.58;;;;;;;24.15;37.81;101720.09;16136181;19;129586;-63
2022/09/05 03:15:30;;;;;;;4.15;3.38;;;;;;;24.12;37.83;101721.47;16135242;19;129686;-63
2022/09/05 03:21:14;;;;;;;5.17;3.67;;;;;;;24.13;38.00;101717.53;16137204;19;130211;-63
2022/09/05 03:26:45;;;;;;;3.85;3.38;;;;;;;24.12;37.71;101715.88;16136308;19;129510;-63
2022/09/05 03:32:29;;;;;;;5.18;3.70;;;;;;;24.12;38.11;101718.69;16135517;19;130310;-63
2022/09/05 03:38:04;;;;;;;;;;;;;;;24.07;37.88;101707.44;16130483;19;129392;-64
2022/09/05 03:43:47;;;;;;;5.55;3.20;;;;;;;24.10;37.92;101706.91;16136305;19;129497;-63
2022/09/05 03:49:23;;;;;;;5.75;3.35;;;;;;;24.09;37.87;101708.03;16138561;19;130826;-63
2022/09/05 03:55:30;;;;;;;3.77;3.00;;;;;;;24.07;37.77;101707.44;16151622;19;130163;-64
2022/09/05 04:01:14;;;;;;;6.10;3.13;;;;;;;24.05;37.92;101709.66;16149975;19;129698;-62
2022/09/05 04:07:04;;;;;;;3.72;3.33;;;;;;;24.06;37.72;101717.75;16149253;19;129288;-63
2022/09/05 04:12:51;;;;;;;5.13;3.00;;;;;;;24.05;37.90;101716.09;16149405;19;129182;-63
2022/09/05 04:18:18;;;;;;;5.10;2.70;;;;;;;24.05;38.04;101720.84;16144867;19;131948;-63
2022/09/05 04:23:56;;;;;;;5.10;3.00;;;;;;;24.05;37.87;101726.41;16149900;19;129791;-63
2022/09/05 04:29:18;;;;;;;2.87;2.43;;;;;;;24.03;38.11;101712.72;16148426;19;130006;-63
2022/09/05 04:34:58;;;;;;;3.42;2.85;;;;;;;24.04;38.01;101720.00;16143265;19;129440;-63
2022/09/05 04:40:40;;;;;;;5.30;2.83;;;;;;;24.04;37.85;101716.34;16149451;19;129463;-63
2022/09/05 04:46:24;;;;;;;5.90;2.65;;;;;;;24.02;37.84;101722.22;16147475;19;130432;-63
2022/09/05 04:52:01;;;;;;;5.32;3.30;;;;;;;24.01;37.84;101731.69;16147442;19;129664;-63
2022/09/05 04:57:44;;;;;;;4.25;2.53;;;;;;;24.01;37.86;101730.84;16143420;19;129300;-62
2022/09/05 05:03:19;;;;;;;2.97;2.47;;;;;;;24.00;37.74;101735.59;16147560;19;130079;-63
2022/09/05 05:09:14;;;;;;;3.90;2.58;;;;;;;24.00;37.88;101751.53;16146412;19;130358;-62
2022/09/05 05:14:45;;;;;;;5.20;2.92;;;;;;;23.99;37.74;101747.06;16143906;19;131364;-63
2022/09/05 05:20:41;;;;;;;4.28;2.50;;;;;;;24.00;38.14;101754.34;16146226;19;130179;-61
2022/09/05 05:26:10;;;;;;;11.13;3.13;;;;;;;24.02;37.77;101752.09;16147478;19;130762;-61
2022/09/05 05:31:35;;;;;;;8.50;2.85;;;;;;;24.02;37.63;101755.75;16139170;19;130061;-61
2022/09/05 05:37:15;;;;;;;5.07;2.78;;;;;;;24.07;37.69;101755.78;16141999;19;129795;-61
2022/09/05 05:42:39;;;;;;;5.40;3.17;;;;;;;24.11;37.50;101758.91;16143926;19;131054;-62
2022/09/05 05:48:38;;;;;;;11.93;2.90;;;;;;;24.16;37.54;101760.91;16140888;19;129189;-62
2022/09/05 05:54:26;;;;;;;7.95;2.85;;;;;;;24.20;37.54;101762.91;16142972;19;131777;-62
2022/09/05 05:59:51;;;;;;;7.68;2.40;;;;;;;24.23;37.52;101765.19;16140929;19;131307;-62
2022/09/05 06:05:32;;;;;;;5.60;2.38;;;;;;;24.27;37.52;101757.97;16142418;19;131027;-62
2022/09/05 06:11:15;;;;;;;7.85;2.80;;;;;;;24.34;37.48;101759.72;16136389;19;128873;-62
2022/09/05 06:17:25;;;;;;;5.80;2.65;;;;;;;24.40;37.29;101761.44;16139192;19;130689;-62
2022/09/05 06:23:07;;;;;;;8.50;2.47;;;;;;;24.43;37.14;101760.91;16139933;19;129333;-62
2022/09/05 06:28:39;;;;;;;6.20;2.30;;;;;;;24.45;37.25;101758.72;16140941;19;128918;-61
2022/09/05 06:34:22;;;;;;;6.38;1.90;;;;;;;24.48;37.04;101762.91;16135866;19;130593;-62
2022/09/05 06:40:13;;;;;;;6.18;3.13;;;;;;;24.50;37.03;101769.09;16140190;19;129001;-61
2022/09/05 06:45:57;;;;;;;3.90;2.03;;;;;;;24.51;37.40;101788.41;16140747;19;130937;-61
2022/09/05 06:51:57;;;;;;;4.50;2.22;;;;;;;24.54;36.63;101789.84;16135240;19;129039;-61
2022/09/05 06:57:43;;;;;;;4.80;2.22;;;;;;;24.51;37.01;101796.78;16135336;19;130243;-62
2022/09/05 07:03:17;;;;;;;4.57;2.00;;;;;;;24.54;37.13;101778.66;16139922;19;129801;-61
2022/09/05 07:08:47;;;;;;;3.30;2.17;;;;;;;24.56;37.05;101788.44;16138423;19;129536;-61
2022/09/05 07:14:16;;;;;;;3.30;2.03;;;;;;;24.58;36.94;101780.66;16139465;19;129665;-62
2022/09/05 07:20:01;;;;;;;3.25;1.88;;;;;;;24.63;36.97;101792.97;16136722;19;130700;-62
2022/09/05 07:25:29;;;;;;;2.85;2.00;;;;;;;24.65;36.90;101810.34;16134484;19;129274;-62
2022/09/05 07:31:09;;;;;;;3.43;2.03;;;;;;;24.65;37.02;101804.75;16131594;19;131618;-62
2022/09/05 07:36:37;;;;;;;4.13;1.90;;;;;;;24.63;37.01;101806.97;16135797;19;129758;-62
2022/09/05 07:42:05;;;;;;;2.65;1.95;;;;;;;24.58;37.14;101791.84;16134445;19;131011;-62
2022/09/05 07:47:31;;;;;;;2.03;1.60;;;;;;;24.56;37.12;101804.38;16134152;19;130666;-61
2022/09/05 07:52:55;;;;;;;3.67;2.00;;;;;;;24.55;37.31;101811.94;16135735;19;130599;-62
2022/09/05 07:58:48;;;;;;;2.17;1.48;;;;;;;24.53;37.12;101816.94;16130601;19;129587;-62
2022/09/05 08:04:25;;;;;;;3.28;1.60;;;;;;;24.53;37.36;101816.94;16134170;19;130147;-62
2022/09/05 08:10:13;;;;;;;4.00;2.22;;;;;;;24.52;37.17;101832.03;16135576;19;129482;-62
2022/09/05 08:15:42;;;;;;;2.33;1.70;;;;;;;24.51;37.15;101818.34;16134001;19;129000;-62
2022/09/05 08:21:33;;;;;;;2.70;1.77;;;;;;;24.54;37.28;101823.41;16137559;19;130187;-62
2022/09/05 08:27:09;;;;;;;3.55;1.70;;;;;;;24.58;37.12;101831.00;16136234;19;129714;-61
2022/09/05 08:32:40;;;;;;;5.28;1.77;;;;;;;24.61;37.21;101835.22;16131539;19;132071;-62
2022/09/05 08:38:03;;;;;;;3.30;1.77;;;;;;;24.61;37.18;101829.63;16142808;19;129500;-62
2022/09/05 08:43:41;;;;;;;2.83;1.70;;;;;;;24.63;37.05;101833.00;16150766;19;129532;-62
2022/09/05 08:49:35;;;;;;;4.15;1.80;;;;;;;24.63;36.85;101824.59;16142550;19;129351;-62
2022/09/05 08:55:11;;;;;;;2.47;1.77;;;;;;;24.62;37.14;101813.66;16146792;19;129960;-63
2022/09/05 09:00:43;;;;;;;2.28;1.60;;;;;;;24.65;36.98;101807.53;16147060;19;129485;-63
2022/09/05 09:06:35;;;;;;;4.97;1.63;;;;;;;24.67;36.73;101806.19;16148129;19;129935;-62
2022/09/05 09:12:11;;;;;;;8.13;1.70;;;;;;;24.71;36.83;101795.28;16147727;19;128997;-62
2022/09/05 09:17:40;;;;;;;5.00;1.90;;;;;;;24.70;36.77;101793.59;16144022;19;131262;-62
2022/09/05 09:23:07;;;;;;;3.28;1.73;;;;;;;24.72;36.44;101785.78;16146380;19;129387;-62
2022/09/05 09:29:11;;;;;;;3.03;1.40;;;;;;;24.73;36.45;101777.13;16146338;19;129869;-62
2022/09/05 09:34:49;;;;;;;4.45;1.60;;;;;;;24.73;36.25;101776.28;16145371;19;129550;-63
2022/09/05 09:40:28;;;;;;;5.63;1.15;;;;;;;24.75;36.19;101776.00;16145518;19;129405;-62
2022/09/05 09:45:59;;;;;;;2.40;1.48;;;;;;;24.73;36.45;101768.72;16144651;19;129576;-63
2022/09/05 09:51:42;;;;;;;3.38;1.50;;;;;;;24.75;36.21;101764.81;16144268;19;129453;-62
2022/09/05 09:57:06;;;;;;;2.17;1.35;;;;;;;24.73;36.04;101763.13;16141329;19;130255;-62
2022/09/05 10:02:44;;;;;;;4.13;1.43;;;;;;;24.75;36.03;101757.25;16139282;19;129796;-61
2022/09/05 10:08:49;;;;;;;4.38;1.60;;;;;;;24.75;36.78;101751.66;16145978;19;129236;-63
2022/09/05 10:15:08;;;;;;;4.07;1.20;;;;;;;24.77;36.52;101749.44;16143897;19;129620;-60
2022/09/05 10:21:13;;;;;;;1.33;1.10;;;;;;;24.77;36.37;101738.25;16143345;19;129926;-58
2022/09/05 10:27:02;;;;;;;3.00;1.20;;;;;;;24.80;36.76;101740.50;16144482;19;129906;-66
2022/09/05 10:32:33;;;;;;;;;;;;;;;24.78;36.57;101739.09;16143335;19;129502;-60
2022/09/05 10:38:22;;;;;;;5.00;1.20;;;;;;;24.84;36.54;101726.81;16142613;19;129728;-59
2022/09/05 10:44:00;;;;;;;2.17;1.10;;;;;;;24.86;36.34;101717.03;16141785;19;129315;-59
2022/09/05 10:49:26;;;;;;;1.70;1.20;;;;;;;24.87;36.12;101713.13;16135723;19;130079;-59
2022/09/05 10:55:01;;;;;;;1.75;1.10;;;;;;;24.88;36.21;101720.44;16144536;19;129346;-61
2022/09/05 11:00:59;;;;;;;3.08;0.93;;;;;;;24.93;35.84;101713.19;16139599;19;129241;-60
2022/09/05 11:06:44;;;;;;;2.67;1.10;;;;;;;24.92;36.03;101705.91;16137204;19;131947;-62
2022/09/05 11:12:31;;;;;;;2.63;1.13;;;;;;;24.92;36.05;101714.31;16181452;19;129149;-62
2022/09/05 11:17:58;;;;;;;4.88;1.00;;;;;;;24.88;36.08;101712.03;16216695;19;127995;-61
2022/09/05 12:06:39;;;;;;;2.13;0.90;;;;;;;24.31;36.46;101668.81;16207427;19;129361;-57
2022/09/05 12:12:31;;;;;;;2.78;1.65;;;;;;;24.63;35.86;101664.28;16201939;19;130361;-58
2022/09/05 12:18:18;;;;;;;2.53;1.10;;;;;;;24.75;35.66;101670.50;16185399;19;130193;-60
2022/09/05 12:24:07;;;;;;;1.98;1.08;;;;;;;24.79;35.62;101666.06;16175335;19;130751;-57
2022/09/05 12:29:54;;;;;;;3.13;1.13;;;;;;;24.80;35.81;101659.34;16184083;19;131496;-61
2022/09/05 12:35:36;;;;;;;4.05;1.17;;;;;;;24.81;35.31;101663.84;16203321;19;130349;-60
2022/09/05 12:41:20;;;;;;;2.47;1.10;;;;;;;24.80;35.84;101664.13;16203595;19;129461;-59
2022/09/05 12:47:09;;;;;;;1.98;1.20;;;;;;;24.81;35.36;101658.25;16205664;19;129048;-54
2022/09/05 12:52:43;;;;;;;2.30;1.30;;;;;;;24.80;35.68;101655.72;16207554;19;131272;-58
2022/09/05 12:58:21;;;;;;;2.97;1.13;;;;;;;24.80;35.77;101658.53;16203812;19;130256;-57
2022/09/05 13:04:17;;;;;;;3.60;1.00;;;;;;;24.81;35.56;101666.63;16177948;19;130463;-57
2022/09/05 13:10:15;;;;;;;1.52;0.90;;;;;;;24.78;35.62;101655.97;16142390;19;128869;-59
2022/09/05 13:15:58;;;;;;;3.08;1.25;;;;;;;24.79;35.70;101646.47;16134889;19;130551;-63
2022/09/05 13:21:25;;;;;;;1.98;1.20;;;;;;;24.81;35.54;101643.41;16132959;19;129094;-60
2022/09/05 13:27:12;;;;;;;4.30;1.13;;;;;;;24.81;35.31;101633.06;16135745;19;130046;-58
2022/09/05 13:32:37;;;;;;;1.45;0.85;;;;;;;24.80;35.56;101617.38;16129844;19;130381;-54
2022/09/05 13:38:37;;;;;;;2.08;1.20;;;;;;;24.81;35.57;101613.47;16128299;19;129262;-55
2022/09/05 13:44:20;;;;;;;2.10;1.02;;;;;;;24.82;35.66;101615.16;16127076;19;129689;-55
2022/09/05 13:50:10;;;;;;;2.42;1.17;;;;;;;24.81;35.72;101610.69;16136693;19;130984;-56
2022/09/05 13:55:43;;;;;;;2.80;1.00;;;;;;;24.80;35.56;101600.59;16139892;19;130886;-55
2022/09/05 14:01:11;;;;;;;1.65;1.00;;;;;;;24.79;35.56;101584.91;16134230;19;129661;-55
2022/09/05 14:06:55;;;;;;;2.28;1.20;;;;;;;24.80;35.87;101586.59;16138774;19;129231;-56
2022/09/05 14:12:40;;;;;;;6.65;1.17;;;;;;;24.79;35.68;101582.13;16136752;19;128921;-57
2022/09/05 14:18:14;;;;;;;1.60;0.80;;;;;;;24.80;35.33;101586.59;16137488;19;128916;-55
2022/09/05 14:24:14;;;;;;;1.52;0.98;;;;;;;24.79;35.57;101575.69;16136721;19;129931;-56
2022/09/05 14:29:45;;;;;;;3.17;1.00;;;;;;;24.80;35.74;101564.22;16137070;19;129743;-56
2022/09/05 14:35:17;;;;;;;2.42;0.80;;;;;;;24.81;35.58;101565.03;16137764;19;129734;-55
2022/09/05 14:41:29;;;;;;;2.03;0.90;;;;;;;24.81;35.45;101551.06;16133362;19;130850;-54
2022/09/05 14:47:21;;;;;;;3.25;1.00;;;;;;;24.81;35.35;101543.50;16137804;19;129552;-53
2022/09/05 14:53:00;;;;;;;3.95;1.30;;;;;;;24.79;35.39;101537.34;16134567;19;129641;-56
2022/09/05 14:58:42;;;;;;;1.70;1.17;;;;;;;24.81;35.41;101521.13;16134666;19;129748;-56
2022/09/05 15:04:33;;;;;;;2.80;1.10;;;;;;;24.80;35.43;101522.25;16128772;19;131689;-55
2022/09/05 15:10:20;;;;;;;6.73;1.20;;;;;;;24.81;35.81;101518.31;16136365;19;130883;-53
2022/09/05 15:16:08;;;;;;;2.33;1.23;;;;;;;24.83;35.67;101524.50;16134842;19;130253;-56
2022/09/05 15:21:31;;;;;;;1.02;0.90;;;;;;;24.85;35.73;101525.06;16133941;19;129072;-55
2022/09/05 15:27:00;;;;;;;1.40;0.80;;;;;;;24.87;36.05;101528.41;16130479;19;129391;-55
2022/09/05 15:32:26;;;;;;;2.90;1.10;;;;;;;24.87;35.92;101531.22;16135213;19;129391;-56
2022/09/05 15:37:48;;;;;;;9.93;1.10;;;;;;;24.97;35.20;101532.41;16135677;19;128891;-57
2022/09/05 15:43:15;;;;;;;4.40;1.27;;;;;;;25.05;34.48;101525.44;16131254;19;131099;-56
2022/09/05 15:48:37;;;;;;;8.13;1.42;;;;;;;25.09;34.90;101520.94;16132013;19;129586;-55
2022/09/05 15:54:00;;;;;;;9.23;1.63;;;;;;;25.10;34.70;101517.88;16128986;19;130902;-56
2022/09/05 15:59:27;;;;;;;5.40;1.70;;;;;;;25.14;34.95;101518.16;16125577;19;129738;-55
2022/09/05 16:05:04;;;;;;;12.98;1.65;;;;;;;25.17;35.51;101520.44;16125516;19;130583;-54
2022/09/05 16:10:45;;;;;;;;;;;;;;;25.14;35.43;101512.56;16132159;19;129216;-58
2022/09/05 16:16:30;;;;;;;7.85;1.60;;;;;;;25.14;35.53;101519.00;16129248;19;129547;-53
2022/09/05 16:22:35;;;;;;;4.50;1.70;;;;;;;25.06;35.86;101536.34;16126787;19;132994;-54
2022/09/05 16:28:23;;;;;;;9.77;1.80;;;;;;;25.01;35.55;101541.91;16122384;19;129823;-53
2022/09/05 16:33:47;;;;;;;6.13;1.55;;;;;;;24.96;35.67;101548.34;16125339;19;130037;-56
2022/09/05 16:39:16;;;;;;;8.05;1.70;;;;;;;24.95;36.29;101545.84;16135264;19;129833;-54
2022/09/05 16:44:47;;;;;;;8.38;2.05;;;;;;;24.95;35.94;101565.44;16142969;19;129427;-56
2022/09/05 16:50:18;;;;;;;4.63;1.27;;;;;;;24.94;35.87;101530.97;16142970;19;129556;-54
2022/09/05 16:55:58;;;;;;;3.53;1.30;;;;;;;24.95;35.75;101532.66;16138523;19;131094;-54
2022/09/05 17:01:44;;;;;;;5.82;1.60;;;;;;;24.95;35.81;101538.25;16139615;19;130482;-54
2022/09/05 17:07:12;;;;;;;;;;;;;;;24.90;35.87;101545.81;16140812;19;129969;-55
2022/09/05 17:12:37;;;;;;;5.13;1.00;;;;;;;24.93;36.45;101522.88;16139655;19;130342;-54
2022/09/05 17:18:05;;;;;;;;;;;;;;;24.91;36.37;101488.72;16142118;19;130721;-55
2022/09/05 17:23:51;;;;;;;5.18;1.17;;;;;;;24.95;36.16;101503.84;16139117;19;129102;-55
2022/09/05 17:29:52;;;;;;;4.93;1.30;;;;;;;24.99;36.95;101504.97;16138450;19;129697;-56
2022/09/05 17:35:43;;;;;;;1.58;1.00;;;;;;;25.00;36.62;101498.25;16139691;19;129565;-52
2022/09/05 17:41:10;;;;;;;5.38;1.13;;;;;;;25.03;36.65;101494.91;16138562;19;128871;-54
2022/09/05 17:46:33;;;;;;;2.00;1.05;;;;;;;25.06;36.72;101499.09;16131155;19;131260;-55
2022/09/05 17:52:00;;;;;;;6.65;1.00;;;;;;;25.03;36.45;101506.97;16135412;19;130065;-55
2022/09/05 17:57:33;;;;;;;5.97;1.20;;;;;;;25.04;36.70;101493.78;16135753;19;130362;-52
2022/09/05 18:02:55;;;;;;;15.75;1.40;;;;;;;25.00;36.77;101487.91;16130922;19;130764;-55
2022/09/05 18:08:49;;;;;;;5.43;1.00;;;;;;;25.01;37.01;101499.94;16135596;19;129422;-56
2022/09/05 18:14:14;;;;;;;4.97;1.10;;;;;;;24.97;37.29;101490.41;16136527;19;129662;-55
2022/09/05 18:19:46;;;;;;;20.63;1.73;;;;;;;24.98;37.12;101498.53;16135670;19;130898;-55
2022/09/05 18:25:35;;;;;;;10.65;1.27;;;;;;;25.00;36.99;101517.84;16134018;19;130011;-55
2022/09/05 18:30:56;;;;;;;5.60;1.10;;;;;;;25.01;37.29;101525.13;16135713;19;130375;-54
2022/09/05 18:36:18;;;;;;;10.30;1.80;;;;;;;24.99;37.09;101532.94;16134769;19;129596;-53
2022/09/05 18:41:52;;;;;;;7.85;0.88;;;;;;;25.03;37.05;101542.50;16135578;19;130427;-57
2022/09/05 18:47:26;;;;;;;4.13;1.13;;;;;;;25.05;37.62;101520.66;16129470;19;128830;-54
2022/09/05 18:52:58;;;;;;;4.28;0.90;;;;;;;25.07;37.38;101524.03;16136038;19;129472;-53
2022/09/05 18:58:41;;;;;;;7.22;1.27;;;;;;;25.06;37.60;101544.75;16133973;19;131818;-57
2022/09/05 19:04:21;;;;;;;5.15;0.80;;;;;;;25.07;38.04;101549.22;16129499;19;130064;-53
2022/09/05 19:10:11;;;;;;;4.13;0.98;;;;;;;25.07;37.81;101546.44;16132149;19;129320;-55
2022/09/05 19:15:59;;;;;;;11.00;1.00;;;;;;;25.07;38.20;101551.16;16134468;19;129673;-54
2022/09/05 19:21:48;;;;;;;3.88;0.90;;;;;;;25.08;37.83;101566.84;16130734;19;128951;-53
2022/09/05 19:27:31;;;;;;;6.38;0.90;;;;;;;25.08;38.27;101622.84;16128224;19;129811;-52
2022/09/05 19:33:24;;;;;;;2.15;1.10;;;;;;;25.10;38.04;101719.47;16129478;19;129788;-54
2022/09/05 19:39:11;;;;;;;7.53;0.90;;;;;;;25.08;38.19;101699.28;16132423;19;130275;-68
2022/09/05 19:44:55;;;;;;;39.95;2.08;;;;;;;25.06;38.22;101718.31;16127078;19;129019;-56
2022/09/05 19:50:37;;;;;;;8.95;1.20;;;;;;;24.99;38.31;101656.97;16126678;19;135294;-57
2022/09/05 19:56:04;;;;;;;13.45;1.40;;;;;;;24.99;38.36;101616.94;16125051;19;129927;-67
2022/09/05 20:01:27;;;;;;;7.03;1.10;;;;;;;25.00;38.58;101593.41;16126438;19;129755;-56
2022/09/05 20:06:49;;;;;;;11.18;1.48;;;;;;;25.01;38.78;101595.97;16124708;19;130627;-57
2022/09/05 20:12:32;;;;;;;13.98;1.40;;;;;;;25.05;38.80;101592.63;16130965;19;130197;-59
2022/09/05 20:17:55;;;;;;;6.72;1.38;;;;;;;25.02;38.68;101599.59;16143839;19;129332;-51
2022/09/05 20:23:18;;;;;;;6.70;1.25;;;;;;;25.00;39.18;101585.03;16142424;19;130272;-51
2022/09/05 20:28:41;;;;;;;8.32;1.20;;;;;;;25.00;38.96;101552.28;16138662;19;129401;-53
2022/09/05 20:34:11;;;;;;;4.25;1.30;;;;;;;25.02;39.09;101560.41;16140386;19;129455;-51
2022/09/05 20:39:53;;;;;;;5.00;1.20;;;;;;;25.01;39.47;101581.09;16142087;19;129720;-49
2022/09/05 20:45:45;;;;;;;2.58;1.02;;;;;;;25.03;39.49;101581.69;16139989;19;129171;-52
2022/09/05 20:51:29;;;;;;;2.08;0.90;;;;;;;25.05;39.58;101571.06;16140754;19;129387;-50
2022/09/05 20:57:27;;;;;;;4.22;0.93;;;;;;;25.06;39.45;101550.34;16141816;19;129990;-50
2022/09/05 21:02:58;;;;;;;4.85;1.00;;;;;;;25.07;39.47;101540.84;16134389;19;130566;-54
2022/09/05 21:08:31;;;;;;;3.03;1.00;;;;;;;25.07;39.61;101529.63;16139723;19;129750;-53
2022/09/05 21:13:55;;;;;;;4.22;1.08;;;;;;;25.07;39.77;101521.25;16140554;19;128909;-51
2022/09/05 21:19:33;;;;;;;3.73;1.30;;;;;;;25.08;39.55;101542.50;16138742;19;130427;-52
2022/09/05 21:25:16;;;;;;;2.72;0.90;;;;;;;25.11;39.40;101676.31;16135350;19;130029;-53
2022/09/05 21:30:43;;;;;;;4.82;1.10;;;;;;;25.10;39.54;101730.66;16139756;19;129045;-55
2022/09/05 21:36:05;;;;;;;4.13;1.20;;;;;;;25.12;39.90;101678.00;16138871;19;130987;-49
2022/09/05 21:41:26;;;;;;;2.55;1.05;;;;;;;25.12;39.47;101663.19;16137884;19;128955;-52
2022/09/05 21:46:52;;;;;;;4.05;1.20;;;;;;;25.12;39.69;101621.19;16133620;19;130282;-54
2022/09/05 21:52:34;;;;;;;2.22;0.80;;;;;;;25.11;39.46;101571.91;16137355;19;129600;-51
2022/09/05 21:58:16;;;;;;;2.70;0.93;;;;;;;25.06;39.58;101580.28;16137048;19;128768;-55
2022/09/05 22:03:58;;;;;;;2.25;1.00;;;;;;;25.02;39.56;101574.41;16132548;19;129495;-54
2022/09/05 22:09:21;;;;;;;2.28;1.05;;;;;;;24.98;39.83;101567.69;16136169;19;130999;-51
2022/09/05 22:14:43;;;;;;;4.47;1.00;;;;;;;24.94;39.72;101517.00;16138732;19;129636;-54
2022/09/05 22:20:09;;;;;;;1.88;0.90;;;;;;;24.91;39.88;101483.13;16133732;19;129583;-54
2022/09/05 22:25:34;;;;;;;3.97;1.00;;;;;;;24.88;39.95;101453.69;16132396;19;131273;-49
2022/09/05 22:30:56;;;;;;;1.58;0.90;;;;;;;24.85;39.86;101437.47;16136843;19;129590;-52
2022/09/05 22:36:18;;;;;;;2.67;1.10;;;;;;;24.83;39.94;101423.75;16134530;19;129151;-53
2022/09/05 22:41:40;;;;;;;3.17;1.10;;;;;;;24.81;39.94;101462.34;16136686;19;130256;-51
2022/09/05 22:47:02;;;;;;;5.05;0.80;;;;;;;24.80;39.79;101614.59;16131865;19;128956;-52
2022/09/05 22:52:24;;;;;;;2.25;0.95;;;;;;;24.79;39.94;101554.13;16135234;19;130436;-54
2022/09/05 22:57:45;;;;;;;2.13;1.20;;;;;;;24.79;39.68;101646.47;16133108;19;129664;-54
2022/09/05 23:03:07;;;;;;;1.55;0.90;;;;;;;24.78;39.67;101649.56;16129116;19;129248;-52
2022/09/05 23:08:30;;;;;;;2.17;0.90;;;;;;;24.78;39.66;101633.59;16128939;19;129070;-54
2022/09/05 23:13:51;;;;;;;1.60;0.88;;;;;;;24.77;39.54;101631.09;16133699;19;128951;-54
2022/09/05 23:19:13;;;;;;;1.75;0.80;;;;;;;24.76;39.73;101612.59;16131834;19;131656;-54
2022/09/05 23:24:35;;;;;;;2.17;1.25;;;;;;;24.75;39.64;101583.75;16132960;19;130671;-54
2022/09/05 23:29:57;;;;;;;0.90;0.77;;;;;;;24.75;39.47;101586.56;16131891;19;130026;-51
2022/09/05 23:35:19;;;;;;;2.78;0.90;;;;;;;24.74;39.63;101565.28;16132085;19;130417;-52
2022/09/05 23:40:40;;;;;;;2.20;0.93;;;;;;;24.72;39.73;101553.56;16132440;19;129929;-55
2022/09/05 23:46:03;;;;;;;1.30;0.98;;;;;;;24.71;39.75;101537.88;16126400;19;129100;-54
2022/09/05 23:51:24;;;;;;;2.50;0.90;;;;;;;24.70;39.60;101522.22;16130489;19;131344;-49
2022/09/05 23:56:46;;;;;;;1.77;0.95;;;;;;;24.69;39.76;101506.53;16129229;19;131489;-55
